createdAt,value
2022-12-05T00:01:46.487Z,95.72
2022-12-05T00:04:15.033Z,95.58
2022-12-05T00:06:44.113Z,95.77
2022-12-05T00:09:13.591Z,95.63
2022-12-05T00:11:44.679Z,95.98
2022-12-05T00:14:14.163Z,96.08
2022-12-05T00:16:44.056Z,96.36
2022-12-05T00:19:15.481Z,96.06
2022-12-05T00:21:44.465Z,96.00
2022-12-05T00:24:15.854Z,96.58
2022-12-05T00:26:44.242Z,96.27
2022-12-05T00:29:12.942Z,95.72
2022-12-05T00:31:41.034Z,95.76
2022-12-05T00:34:09.398Z,95.55
2022-12-05T00:36:37.774Z,95.55
2022-12-05T00:39:11.142Z,94.99
2022-12-05T00:41:39.261Z,95.19
2022-12-05T00:44:07.423Z,95.18
2022-12-05T00:46:36.052Z,95.19
2022-12-05T00:49:06.455Z,95.14
2022-12-05T00:51:40.104Z,95.50
2022-12-05T00:54:14.238Z,95.90
2022-12-05T00:56:42.924Z,96.06
2022-12-05T00:59:18.239Z,95.92
2022-12-05T01:01:48.337Z,95.44
2022-12-05T01:04:24.054Z,95.55
2022-12-05T01:06:56.095Z,95.57
2022-12-05T01:09:25.406Z,94.65
2022-12-05T01:11:54.103Z,94.99
2022-12-05T01:14:25.093Z,94.77
2022-12-05T01:16:55.850Z,95.04
2022-12-05T01:19:29.567Z,95.25
2022-12-05T01:21:59.090Z,94.83
2022-12-05T01:24:29.388Z,95.34
2022-12-05T01:26:57.677Z,95.21
2022-12-05T01:29:26.178Z,95.34
2022-12-05T01:31:54.837Z,95.88
2022-12-05T01:34:23.320Z,96.11
2022-12-05T01:36:51.394Z,95.73
2022-12-05T01:39:19.308Z,95.41
2022-12-05T01:41:50.045Z,95.88
2022-12-05T01:44:17.805Z,95.42
2022-12-05T01:46:51.135Z,95.53
2022-12-05T01:49:37.282Z,95.17
2022-12-05T01:52:16.563Z,95.25
2022-12-05T01:54:48.395Z,96.30
2022-12-05T01:57:16.541Z,96.33
2022-12-05T01:59:51.915Z,95.82
2022-12-05T02:02:22.402Z,95.57
2022-12-05T02:05:11.618Z,94.94
2022-12-05T02:07:43.460Z,95.63
2022-12-05T02:10:11.702Z,95.75
2022-12-05T02:12:40.627Z,95.24
2022-12-05T02:15:34.263Z,95.46
2022-12-05T02:18:29.840Z,95.56
2022-12-05T02:21:14.839Z,95.21
2022-12-05T02:24:19.939Z,95.04
2022-12-05T02:27:26.521Z,95.27
2022-12-05T02:30:04.510Z,95.73
2022-12-05T02:32:47.587Z,95.60
2022-12-05T02:35:42.174Z,95.16
2022-12-05T02:38:36.627Z,94.95
2022-12-05T02:41:32.738Z,95.55
2022-12-05T02:44:17.244Z,95.74
2022-12-05T02:46:48.005Z,96.16
2022-12-05T02:49:22.300Z,96.21
2022-12-05T02:51:56.609Z,96.38
2022-12-05T02:54:39.370Z,96.60
2022-12-05T02:57:09.929Z,96.35
2022-12-05T02:59:38.219Z,95.63
2022-12-05T03:02:22.584Z,95.54
2022-12-05T03:04:50.447Z,95.97
2022-12-05T03:07:23.074Z,95.92
2022-12-05T03:10:01.120Z,96.09
2022-12-05T03:12:35.521Z,95.95
2022-12-05T03:15:15.098Z,96.30
2022-12-05T03:18:37.607Z,96.30
2022-12-05T03:21:25.489Z,95.65
2022-12-05T03:24:01.760Z,95.14
2022-12-05T03:26:48.011Z,95.03
2022-12-05T03:29:56.453Z,94.68
2022-12-05T03:32:31.202Z,94.00
2022-12-05T03:35:28.198Z,94.39
2022-12-05T03:38:28.515Z,94.65
2022-12-05T03:41:11.166Z,95.41
2022-12-05T03:43:49.964Z,95.81
2022-12-05T03:46:48.512Z,96.27
2022-12-05T03:49:49.252Z,96.32
2022-12-05T03:52:30.429Z,95.85
2022-12-05T03:55:04.557Z,96.50
2022-12-05T03:57:58.033Z,96.72
2022-12-05T04:00:29.472Z,96.93
2022-12-05T04:03:14.987Z,96.52
2022-12-05T04:05:49.951Z,96.93
2022-12-05T04:08:26.253Z,96.39
2022-12-05T04:11:01.706Z,95.80
2022-12-05T04:13:48.393Z,96.25
2022-12-05T04:16:57.035Z,95.89
2022-12-05T04:19:50.230Z,95.68
2022-12-05T04:22:19.841Z,96.44
2022-12-05T04:25:08.895Z,96.08
2022-12-05T04:28:21.009Z,95.96
2022-12-05T04:31:16.692Z,96.89
2022-12-05T04:34:00.391Z,96.43
2022-12-05T04:36:46.837Z,96.27
2022-12-05T04:39:25.912Z,95.97
2022-12-05T04:42:05.682Z,95.94
2022-12-05T04:44:40.131Z,96.27
2022-12-05T04:47:10.905Z,96.29
2022-12-05T04:49:41.215Z,96.62
2022-12-05T04:52:12.040Z,96.77
2022-12-05T04:55:13.229Z,96.94
2022-12-05T04:57:52.114Z,96.64
2022-12-05T05:00:20.018Z,96.55
2022-12-05T05:03:08.557Z,96.15
2022-12-05T05:05:38.388Z,96.25
2022-12-05T05:08:24.311Z,96.35
2022-12-05T05:11:14.606Z,96.48
2022-12-05T05:13:42.559Z,96.33
2022-12-05T05:16:26.947Z,96.43
2022-12-05T05:18:55.729Z,96.45
2022-12-05T05:21:36.424Z,96.27
2022-12-05T05:24:06.965Z,96.50
2022-12-05T05:26:40.568Z,96.48
2022-12-05T05:29:09.757Z,96.05
2022-12-05T05:31:39.589Z,96.31
2022-12-05T05:34:09.935Z,96.46
2022-12-05T05:36:39.102Z,95.50
2022-12-05T05:39:12.455Z,95.82
2022-12-05T05:41:41.457Z,96.29
2022-12-05T05:44:10.238Z,96.71
2022-12-05T05:46:38.410Z,96.58
2022-12-05T05:49:06.407Z,96.53
2022-12-05T05:51:34.278Z,96.45
2022-12-05T05:54:02.194Z,96.67
2022-12-05T05:56:30.180Z,96.81
2022-12-05T05:59:02.856Z,96.31
2022-12-05T06:01:31.769Z,96.57
2022-12-05T06:03:59.790Z,96.49
2022-12-05T06:06:27.945Z,96.64
2022-12-05T06:08:55.855Z,96.47
2022-12-05T06:11:27.391Z,95.64
2022-12-05T06:13:57.951Z,95.33
2022-12-05T06:16:25.837Z,95.84
2022-12-05T06:18:54.109Z,96.47
2022-12-05T06:21:23.024Z,96.51
2022-12-05T06:23:51.341Z,96.02
2022-12-05T06:26:21.675Z,96.60
2022-12-05T06:28:49.611Z,97.24
2022-12-05T06:31:21.643Z,97.02
2022-12-05T06:33:49.893Z,96.88
2022-12-05T06:36:22.006Z,96.88
2022-12-05T06:38:50.057Z,96.27
2022-12-05T06:41:20.774Z,96.06
2022-12-05T06:43:48.704Z,95.65
2022-12-05T06:46:16.627Z,95.63
2022-12-05T06:48:45.022Z,95.63
2022-12-05T06:51:17.418Z,96.49
2022-12-05T06:53:46.119Z,96.25
2022-12-05T06:56:17.817Z,95.71
2022-12-05T06:58:50.134Z,96.01
2022-12-05T07:01:39.167Z,96.53
2022-12-05T07:04:20.619Z,96.61
2022-12-05T07:06:51.494Z,96.43
2022-12-05T07:09:23.006Z,96.29
2022-12-05T07:11:51.631Z,96.23
2022-12-05T07:14:45.839Z,96.18
2022-12-05T07:17:07.510Z,96.01
2022-12-05T07:19:35.988Z,95.62
2022-12-05T07:22:04.324Z,96.00
2022-12-05T07:24:32.241Z,95.95
2022-12-05T07:27:00.084Z,95.89
2022-12-05T07:29:27.975Z,95.81
2022-12-05T07:31:56.013Z,95.56
2022-12-05T07:34:23.918Z,95.57
2022-12-05T07:36:51.780Z,95.64
2022-12-05T07:39:20.045Z,95.68
2022-12-05T07:41:48.056Z,95.91
2022-12-05T07:44:17.460Z,95.81
2022-12-05T07:46:45.407Z,95.12
2022-12-05T07:49:15.667Z,95.44
2022-12-05T07:51:43.794Z,95.11
2022-12-05T07:54:11.856Z,95.01
2022-12-05T07:56:43.338Z,95.14
2022-12-05T07:59:15.458Z,94.70
2022-12-05T08:01:43.362Z,94.25
2022-12-05T08:04:15.325Z,94.36
2022-12-05T08:06:43.820Z,94.10
2022-12-05T08:09:11.715Z,93.86
2022-12-05T08:11:39.555Z,93.72
2022-12-05T08:14:07.792Z,93.62
2022-12-05T08:16:35.748Z,93.42
2022-12-05T08:19:14.531Z,93.90
2022-12-05T08:21:42.666Z,94.32
2022-12-05T08:24:11.378Z,94.19
2022-12-05T08:26:39.950Z,93.76
2022-12-05T08:29:15.151Z,93.84
2022-12-05T08:31:49.830Z,93.97
2022-12-05T08:34:20.042Z,93.32
2022-12-05T08:36:48.529Z,93.02
2022-12-05T08:39:19.652Z,93.01
2022-12-05T08:41:49.101Z,93.25
2022-12-05T08:44:18.329Z,93.75
2022-12-05T08:46:50.098Z,93.74
2022-12-05T08:49:18.756Z,93.17
2022-12-05T08:51:46.886Z,93.58
2022-12-05T08:54:17.146Z,93.86
2022-12-05T08:56:45.600Z,93.60
2022-12-05T08:59:13.535Z,92.88
2022-12-05T09:01:42.419Z,92.40
2022-12-05T09:04:11.681Z,93.03
2022-12-05T09:06:40.701Z,92.74
2022-12-05T09:09:12.014Z,92.59
2022-12-05T09:11:48.720Z,92.41
2022-12-05T09:14:17.537Z,92.10
2022-12-05T09:16:47.662Z,91.89
2022-12-05T09:19:25.810Z,92.52
2022-12-05T09:21:55.197Z,92.51
2022-12-05T09:24:23.214Z,92.50
2022-12-05T09:26:51.582Z,92.51
2022-12-05T09:29:19.498Z,92.38
2022-12-05T09:31:50.108Z,91.49
2022-12-05T09:34:20.052Z,90.90
2022-12-05T09:37:05.654Z,90.65
2022-12-05T09:39:38.662Z,91.57
2022-12-05T09:42:25.717Z,91.49
2022-12-05T09:45:22.759Z,90.96
2022-12-05T09:48:21.585Z,90.59
2022-12-05T09:50:57.548Z,91.41
2022-12-05T09:53:39.365Z,90.61
2022-12-05T09:56:10.255Z,91.55
2022-12-05T09:58:49.414Z,91.20
2022-12-05T10:01:45.857Z,91.62
2022-12-05T10:04:35.288Z,91.22
2022-12-05T10:07:38.267Z,91.44
2022-12-05T10:10:31.157Z,90.83
2022-12-05T10:13:27.230Z,90.55
2022-12-05T10:16:11.163Z,89.94
2022-12-05T10:19:02.504Z,90.50
2022-12-05T10:21:49.404Z,91.04
2022-12-05T10:24:31.940Z,90.64
2022-12-05T10:27:06.892Z,91.60
2022-12-05T10:29:45.374Z,92.51
2022-12-05T10:32:18.522Z,92.42
2022-12-05T10:34:46.944Z,91.59
2022-12-05T10:37:24.050Z,91.53
2022-12-05T10:39:53.432Z,91.94
2022-12-05T10:42:34.509Z,92.64
2022-12-05T10:45:06.586Z,92.40
2022-12-05T10:47:35.772Z,91.78
2022-12-05T10:50:23.233Z,91.44
2022-12-05T10:52:55.535Z,91.94
2022-12-05T10:55:29.692Z,92.08
2022-12-05T10:58:22.875Z,92.55
2022-12-05T11:00:55.982Z,91.99
2022-12-05T11:03:39.601Z,91.64
2022-12-05T11:06:25.458Z,91.71
2022-12-05T11:09:05.329Z,90.75
2022-12-05T11:11:34.548Z,90.79
2022-12-05T11:14:21.833Z,90.70
2022-12-05T11:16:59.599Z,90.22
2022-12-05T11:19:31.920Z,90.59
2022-12-05T11:22:00.722Z,90.18
2022-12-05T11:24:33.236Z,89.72
2022-12-05T11:27:21.244Z,89.75
2022-12-05T11:30:13.592Z,90.49
2022-12-05T11:32:41.592Z,90.34
2022-12-05T11:35:16.774Z,89.49
2022-12-05T11:38:05.344Z,89.80
2022-12-05T11:40:49.994Z,89.15
2022-12-05T11:44:25.600Z,90.00
2022-12-05T11:47:18.046Z,90.11
2022-12-05T11:50:23.596Z,89.70
2022-12-05T11:53:09.345Z,89.02
2022-12-05T11:55:59.603Z,89.81
2022-12-05T11:59:19.127Z,90.11
2022-12-05T12:02:19.094Z,89.45
2022-12-05T12:05:01.054Z,88.86
2022-12-05T12:08:01.686Z,89.12
2022-12-05T12:11:10.576Z,88.50
2022-12-05T12:13:46.424Z,88.68
2022-12-05T12:16:23.111Z,88.08
2022-12-05T12:19:28.859Z,88.44
2022-12-05T12:22:24.182Z,89.37
2022-12-05T12:25:13.337Z,90.00
2022-12-05T12:28:10.649Z,90.23
2022-12-05T12:30:47.910Z,89.41
2022-12-05T12:34:04.101Z,89.17
2022-12-05T12:36:47.642Z,89.70
2022-12-05T12:39:50.907Z,89.14
2022-12-05T12:42:46.460Z,88.78
2022-12-05T12:45:27.324Z,89.86
2022-12-05T12:48:24.395Z,89.83
2022-12-05T12:50:54.793Z,89.85
2022-12-05T12:57:55.915Z,89.91
2022-12-05T13:00:45.964Z,89.79
2022-12-05T13:03:23.174Z,90.41
2022-12-05T13:06:02.529Z,90.56
2022-12-05T13:08:50.319Z,90.54
2022-12-05T13:11:20.753Z,90.39
2022-12-05T13:13:57.723Z,90.32
2022-12-05T13:16:35.245Z,90.40
2022-12-05T13:19:06.818Z,89.60
2022-12-05T13:21:35.442Z,91.01
2022-12-05T13:24:04.625Z,91.16
2022-12-05T13:26:36.897Z,90.65
2022-12-05T13:29:05.669Z,90.27
2022-12-05T13:31:45.882Z,89.94
2022-12-05T13:34:46.100Z,90.77
2022-12-05T13:37:49.840Z,91.10
2022-12-05T13:40:51.197Z,90.16
2022-12-05T13:43:27.151Z,90.65
2022-12-05T13:46:24.267Z,90.97
2022-12-05T13:49:06.843Z,91.34
2022-12-05T13:51:40.291Z,91.24
2022-12-05T13:54:19.658Z,90.60
2022-12-05T13:56:53.998Z,90.86
2022-12-05T14:00:23.223Z,91.68
2022-12-05T14:03:06.157Z,91.57
2022-12-05T14:05:45.792Z,92.69
2022-12-05T14:08:32.270Z,93.07
2022-12-05T14:11:01.250Z,93.54
2022-12-05T14:13:41.906Z,94.04
2022-12-05T14:16:25.362Z,93.75
2022-12-05T14:19:24.073Z,93.41
2022-12-05T14:22:17.616Z,93.23
2022-12-05T14:25:03.885Z,93.03
2022-12-05T14:27:50.315Z,93.46
2022-12-05T14:30:52.365Z,93.01
2022-12-05T14:33:23.586Z,93.22
2022-12-05T14:35:53.565Z,92.69
2022-12-05T14:38:32.590Z,93.26
2022-12-05T14:41:26.226Z,93.04
2022-12-05T14:43:56.886Z,93.54
2022-12-05T14:46:30.354Z,93.97
2022-12-05T14:49:02.376Z,94.66
2022-12-05T14:51:30.204Z,94.18
2022-12-05T14:54:10.725Z,94.43
2022-12-05T14:56:49.606Z,94.57
2022-12-05T14:59:31.185Z,93.84
2022-12-05T15:02:03.494Z,93.51
2022-12-05T15:04:43.577Z,94.20
2022-12-05T15:07:32.392Z,94.15
2022-12-05T15:10:38.818Z,94.09
2022-12-05T15:13:17.707Z,93.95
2022-12-05T15:16:02.601Z,94.12
2022-12-05T15:18:46.166Z,94.08
2022-12-05T15:21:34.631Z,93.20
2022-12-05T15:24:13.758Z,93.75
2022-12-05T15:26:50.183Z,93.48
2022-12-05T15:29:23.070Z,93.38
2022-12-05T15:32:02.466Z,93.12
2022-12-05T15:34:49.411Z,93.12
2022-12-05T15:37:31.744Z,92.54
2022-12-05T15:40:08.250Z,93.26
2022-12-05T15:42:48.133Z,93.10
2022-12-05T15:45:28.815Z,93.28
2022-12-05T15:48:12.849Z,93.41
2022-12-05T15:50:45.351Z,93.21
2022-12-05T15:53:23.913Z,93.43
2022-12-05T15:56:08.116Z,93.66
2022-12-05T15:58:54.373Z,93.26
2022-12-05T16:01:26.663Z,93.01
2022-12-05T16:04:16.818Z,92.96
2022-12-05T16:06:50.605Z,93.42
2022-12-05T16:09:31.029Z,93.37
2022-12-05T16:12:05.844Z,93.19
2022-12-05T16:17:37.492Z,93.90
2022-12-05T16:20:18.627Z,93.56
2022-12-05T16:22:52.892Z,93.90
2022-12-05T16:25:33.624Z,93.36
2022-12-05T16:28:14.894Z,93.57
2022-12-05T16:31:05.765Z,92.72
2022-12-05T16:33:35.654Z,92.86
2022-12-05T16:36:14.351Z,93.36
2022-12-05T16:38:44.879Z,93.43
2022-12-05T16:41:15.814Z,93.07
2022-12-05T16:43:46.392Z,93.23
2022-12-05T16:46:14.447Z,92.96
2022-12-05T16:48:45.510Z,92.63
2022-12-05T16:51:13.486Z,92.40
2022-12-05T16:53:48.894Z,93.49
2022-12-05T16:56:27.789Z,94.34
2022-12-05T16:58:56.891Z,94.23
2022-12-05T17:01:27.345Z,94.24
2022-12-05T17:03:59.265Z,94.45
2022-12-05T17:06:27.386Z,94.66
2022-12-05T17:08:55.532Z,94.51
2022-12-05T17:11:27.068Z,94.44
2022-12-05T17:13:57.060Z,93.94
2022-12-05T17:16:26.762Z,93.66
2022-12-05T17:18:54.974Z,93.14
2022-12-05T17:21:27.137Z,93.75
2022-12-05T17:23:55.402Z,94.01
2022-12-05T17:26:23.412Z,93.30
2022-12-05T17:28:51.344Z,93.93
2022-12-05T17:31:25.571Z,94.46
2022-12-05T17:33:54.429Z,94.83
2022-12-05T17:36:22.615Z,94.74
2022-12-05T17:38:50.665Z,95.15
2022-12-05T17:41:24.852Z,94.51
2022-12-05T17:43:52.940Z,94.61
2022-12-05T17:46:23.658Z,94.50
2022-12-05T17:48:52.409Z,94.29
2022-12-05T17:51:22.326Z,93.38
2022-12-05T17:53:52.796Z,93.36
2022-12-05T17:56:21.503Z,94.47
2022-12-05T17:58:50.617Z,94.52
2022-12-05T18:01:21.200Z,94.31
2022-12-05T18:03:49.257Z,93.83
2022-12-05T18:06:18.238Z,93.83
2022-12-05T18:08:46.197Z,93.35
2022-12-05T18:11:18.442Z,93.08
2022-12-05T18:13:46.356Z,94.08
2022-12-05T18:16:14.407Z,94.32
2022-12-05T18:18:42.323Z,93.34
2022-12-05T18:21:12.989Z,93.82
2022-12-05T18:23:41.573Z,93.80
2022-12-05T18:26:15.298Z,93.76
2022-12-05T18:28:43.468Z,93.34
2022-12-05T18:31:15.506Z,93.42
2022-12-05T18:33:45.505Z,93.28
2022-12-05T18:36:17.950Z,92.91
2022-12-05T18:38:52.194Z,93.18
2022-12-05T18:41:23.287Z,92.95
2022-12-05T18:43:51.209Z,92.44
2022-12-05T18:46:19.381Z,92.36
2022-12-05T18:48:48.235Z,92.56
2022-12-05T18:51:21.315Z,93.09
2022-12-05T18:53:57.090Z,92.86
2022-12-05T18:56:34.696Z,93.03
2022-12-05T18:59:14.899Z,92.12
2022-12-05T19:01:43.779Z,92.69
2022-12-05T19:04:15.208Z,92.72
2022-12-05T19:06:53.411Z,92.85
2022-12-05T19:09:25.412Z,92.67
2022-12-05T19:11:59.715Z,92.40
2022-12-05T19:14:32.807Z,92.32
2022-12-05T19:17:00.950Z,92.41
2022-12-05T19:19:29.163Z,92.94
2022-12-05T19:21:58.917Z,93.05
2022-12-05T19:24:27.024Z,93.41
2022-12-05T19:26:54.976Z,93.29
2022-12-05T19:29:22.953Z,92.99
2022-12-05T19:31:51.049Z,93.03
2022-12-05T19:34:19.205Z,93.02
2022-12-05T19:36:47.242Z,92.45
2022-12-05T19:39:23.575Z,92.81
2022-12-05T19:41:54.652Z,93.39
2022-12-05T19:44:22.568Z,93.22
2022-12-05T19:46:50.558Z,92.34
2022-12-05T19:49:19.138Z,93.07
2022-12-05T19:51:48.587Z,93.16
2022-12-05T19:54:21.769Z,94.11
2022-12-05T19:56:50.161Z,93.66
2022-12-05T19:59:22.202Z,93.19
2022-12-05T20:02:25.708Z,93.37
2022-12-05T20:06:07.443Z,93.16
2022-12-05T20:08:37.413Z,92.92
2022-12-05T20:11:18.253Z,93.09
2022-12-05T20:14:47.372Z,92.54
2022-12-05T20:17:02.444Z,92.44
2022-12-05T20:19:46.546Z,92.43
2022-12-05T20:22:29.300Z,92.68
2022-12-05T20:25:08.292Z,92.25
2022-12-05T20:27:38.816Z,91.83
2022-12-05T20:30:07.948Z,92.30
2022-12-05T20:32:35.993Z,92.40
2022-12-05T20:35:07.717Z,92.00
2022-12-05T20:37:35.909Z,92.44
2022-12-05T20:40:04.539Z,92.38
2022-12-05T20:42:32.463Z,92.35
2022-12-05T20:45:08.832Z,92.17
2022-12-05T20:47:38.995Z,92.40
2022-12-05T20:50:20.547Z,93.11
2022-12-05T20:52:53.120Z,92.92
2022-12-05T20:55:33.038Z,93.52
2022-12-05T20:58:05.385Z,93.60
2022-12-05T21:01:19.512Z,95.29
2022-12-05T21:04:31.336Z,96.99
2022-12-05T21:07:33.103Z,97.50
2022-12-05T21:10:08.122Z,98.12
2022-12-05T21:12:36.697Z,98.42
2022-12-05T21:15:05.346Z,98.28
2022-12-05T21:17:35.569Z,98.50
2022-12-05T21:20:05.674Z,98.61
2022-12-05T21:22:33.555Z,99.07
2022-12-05T21:25:01.813Z,98.89
2022-12-05T21:27:31.070Z,98.95
2022-12-05T21:30:02.850Z,98.86
2022-12-05T21:32:30.806Z,98.80
2022-12-05T21:34:58.630Z,99.09
2022-12-05T21:37:26.725Z,99.27
2022-12-05T21:39:55.270Z,99.32
2022-12-05T21:42:23.144Z,99.39
2022-12-05T21:44:50.975Z,99.35
2022-12-05T21:47:18.861Z,99.58
2022-12-05T21:49:46.907Z,99.69
2022-12-05T21:52:17.304Z,99.73
2022-12-05T21:54:47.589Z,99.88
2022-12-05T21:57:17.714Z,99.72
2022-12-05T21:59:46.954Z,99.56
2022-12-05T22:02:14.888Z,99.77
2022-12-05T22:04:43.160Z,99.89
2022-12-05T22:07:11.397Z,99.56
2022-12-05T22:09:39.233Z,99.78
2022-12-05T22:12:13.434Z,99.68
2022-12-05T22:14:45.154Z,99.84
2022-12-05T22:17:13.117Z,99.88
2022-12-05T22:19:41.065Z,99.80
2022-12-05T22:22:10.101Z,99.81
2022-12-05T22:24:38.937Z,99.95
2022-12-05T22:27:06.900Z,99.88
2022-12-05T22:29:36.349Z,99.89
2022-12-05T22:32:04.383Z,99.54
2022-12-05T22:34:32.456Z,99.10
2022-12-05T22:37:04.516Z,99.45
2022-12-05T22:39:36.723Z,99.20
2022-12-05T22:42:04.664Z,99.24
2022-12-05T22:44:33.735Z,98.90
2022-12-05T22:47:01.836Z,99.03
2022-12-05T22:49:29.770Z,98.85
2022-12-05T22:51:57.635Z,99.46
2022-12-05T22:54:30.049Z,99.13
2022-12-05T22:56:58.322Z,99.05
2022-12-05T22:59:26.167Z,98.82
2022-12-05T23:01:54.073Z,98.85
2022-12-05T23:04:22.090Z,98.64
2022-12-05T23:06:50.083Z,98.91
2022-12-05T23:09:18.365Z,98.77
2022-12-05T23:11:50.447Z,98.47
2022-12-05T23:14:18.533Z,98.54
2022-12-05T23:16:46.446Z,98.61
2022-12-05T23:19:15.274Z,98.26
2022-12-05T23:21:43.133Z,98.49
2022-12-05T23:24:13.118Z,98.41
2022-12-05T23:26:45.774Z,98.68
2022-12-05T23:29:14.756Z,98.60
2022-12-05T23:31:43.263Z,98.34
2022-12-05T23:34:12.137Z,98.39
2022-12-05T23:36:40.075Z,98.37
2022-12-05T23:39:08.032Z,98.60
2022-12-05T23:41:36.039Z,98.72
2022-12-05T23:44:04.236Z,98.62
2022-12-05T23:46:32.184Z,98.57
2022-12-05T23:49:01.070Z,98.32
2022-12-05T23:51:30.355Z,99.00
2022-12-05T23:54:01.272Z,99.12
2022-12-05T23:56:33.225Z,98.82
2022-12-05T23:59:04.557Z,98.77
